Time;durP1;ratioP1;P1;durP2;ratioP2;P2;SDS_P1;SDS_P2;PMS_P1;PMS_P2;Temp;Humidity;BMP_temperature;BMP_pressure;BME280_temperature;BME280_humidity;BME280_pressure;Samples;Min_cycle;Max_cycle;Signal;HPM_P1;HPM_P2
2023/07/10 00:01:32;;;;;;;8.48;7.60;;;;;;;23.71;42.07;101182.19;7398897;19;20216;-70
2023/07/10 00:04:00;;;;;;;8.10;7.18;;;;;;;23.69;42.65;101183.25;7397746;19;20021;-69
2023/07/10 00:06:28;;;;;;;10.15;7.32;;;;;;;23.64;42.36;101190.75;7399207;19;20021;-69
2023/07/10 00:08:59;;;;;;;8.40;7.53;;;;;;;23.58;42.53;101194.72;7398749;19;20015;-69
2023/07/10 00:11:31;;;;;;;8.98;7.28;;;;;;;23.52;42.44;101201.34;7399039;19;20091;-69
2023/07/10 00:14:00;;;;;;;8.43;7.63;;;;;;;23.45;42.63;101201.91;7396142;19;20024;-70
2023/07/10 00:16:29;;;;;;;7.97;7.18;;;;;;;23.40;43.16;101191.50;7397988;19;20074;-70
2023/07/10 00:18:58;;;;;;;8.07;7.28;;;;;;;23.36;43.24;101195.34;7397287;19;20018;-69
2023/07/10 00:21:26;;;;;;;7.88;7.07;;;;;;;23.33;43.14;101198.22;7398378;19;20081;-69
2023/07/10 00:23:55;;;;;;;9.32;7.47;;;;;;;23.29;43.50;101205.63;7396889;19;20503;-70
2023/07/10 00:26:28;;;;;;;8.35;7.00;;;;;;;23.25;43.52;101222.84;7398441;19;20450;-70
2023/07/10 00:28:58;;;;;;;8.23;7.43;;;;;;;23.20;43.15;101236.56;7398816;19;20081;-69
2023/07/10 00:31:27;;;;;;;8.68;7.47;;;;;;;23.10;43.29;101246.09;7395944;19;20086;-69
2023/07/10 00:33:56;;;;;;;8.35;7.05;;;;;;;23.04;43.62;101263.44;7396461;19;20542;-69
2023/07/10 00:36:31;;;;;;;10.05;7.30;;;;;;;22.99;43.32;101280.75;7397921;19;20038;-69
2023/07/10 00:39:04;;;;;;;7.95;6.65;;;;;;;22.96;43.48;101299.69;7397162;19;20035;-69
2023/07/10 00:41:38;;;;;;;9.30;8.00;;;;;;;22.87;43.84;101307.34;7398364;19;20131;-69
2023/07/10 00:44:08;;;;;;;11.35;7.82;;;;;;;22.76;43.92;101304.50;7396362;19;20078;-69
2023/07/10 00:46:41;;;;;;;9.30;7.72;;;;;;;22.68;44.28;101337.09;7397192;19;20077;-69
2023/07/10 00:49:16;;;;;;;7.88;7.07;;;;;;;22.61;44.31;101354.50;7396090;19;20019;-69
2023/07/10 00:52:00;;;;;;;9.32;7.22;;;;;;;22.55;44.65;101366.44;7397497;19;20083;-69
2023/07/10 00:54:32;;;;;;;9.98;7.90;;;;;;;22.50;44.84;101341.78;7396095;19;20023;-69
2023/07/10 00:57:08;;;;;;;14.70;9.07;;;;;;;22.50;44.50;101324.91;7397625;19;20090;-69
2023/07/10 00:59:42;;;;;;;8.82;7.93;;;;;;;22.51;44.50;101326.59;7395711;19;20015;-69
2023/07/10 01:02:25;;;;;;;10.25;8.13;;;;;;;22.56;44.59;101336.06;7395128;19;20485;-69
2023/07/10 01:04:59;;;;;;;13.50;10.15;;;;;;;22.59;44.86;101313.63;7395343;19;20011;-68
2023/07/10 01:07:30;;;;;;;12.65;10.57;;;;;;;22.58;44.63;101296.72;7397268;19;20006;-68
2023/07/10 01:10:02;;;;;;;15.25;11.07;;;;;;;22.63;45.34;101287.53;7396346;19;20086;-68
2023/07/10 01:12:35;;;;;;;14.82;11.85;;;;;;;22.64;45.62;101287.44;7396826;19;20018;-68
2023/07/10 01:15:04;;;;;;;16.48;11.90;;;;;;;22.65;45.68;101269.59;7396201;19;20481;-68
2023/07/10 01:17:33;;;;;;;14.73;12.18;;;;;;;22.67;46.60;101246.28;7394155;19;20490;-68
2023/07/10 01:20:05;;;;;;;16.50;12.75;;;;;;;22.69;46.97;101237.19;7394131;19;20019;-68
2023/07/10 01:22:36;;;;;;;14.18;12.57;;;;;;;22.71;47.53;101240.63;7396187;19;20014;-68
2023/07/10 01:25:04;;;;;;;15.27;11.85;;;;;;;22.73;48.33;101229.81;7395359;19;20353;-68
2023/07/10 01:27:33;;;;;;;14.57;12.52;;;;;;;22.72;47.95;101209.38;7393641;19;20018;-68
2023/07/10 01:30:06;;;;;;;15.90;11.93;;;;;;;22.70;48.83;101192.59;7395220;19;20011;-68
2023/07/10 01:32:35;;;;;;;;;;;;;;;22.69;48.39;101181.03;7396846;19;20022;-68
2023/07/10 01:35:07;;;;;;;16.38;11.30;;;;;;;22.68;48.53;101178.47;7395676;19;19919;-69
2023/07/10 01:37:38;;;;;;;13.77;11.50;;;;;;;22.66;49.14;101177.69;7397784;19;20027;-69
2023/07/10 01:40:12;;;;;;;13.25;11.95;;;;;;;22.65;49.18;101170.66;7395860;19;20015;-69
2023/07/10 01:42:40;;;;;;;12.60;10.80;;;;;;;22.65;49.09;101168.81;7395644;19;20405;-68
2023/07/10 01:45:14;;;;;;;13.43;11.93;;;;;;;22.66;49.33;101165.19;7397574;19;20014;-68
2023/07/10 01:47:42;;;;;;;;;;;;;;;22.68;48.58;101163.25;7397118;19;20025;-67
2023/07/10 01:50:12;;;;;;;13.50;11.55;;;;;;;22.67;48.60;101155.34;7395327;19;19978;-69
2023/07/10 01:52:49;;;;;;;13.05;11.50;;;;;;;22.66;48.90;101142.94;7395165;19;20478;-68
2023/07/10 01:55:21;;;;;;;12.10;10.90;;;;;;;22.63;49.03;101151.16;7396260;19;20159;-68
2023/07/10 01:57:49;;;;;;;12.02;10.30;;;;;;;22.59;49.19;101142.50;7395994;19;20092;-68
2023/07/10 02:00:19;;;;;;;10.57;9.43;;;;;;;22.58;49.19;101146.13;7393211;19;20074;-68
2023/07/10 02:02:47;;;;;;;11.00;9.73;;;;;;;22.55;49.61;101143.66;7395873;19;20437;-68
2023/07/10 02:05:16;;;;;;;12.18;9.75;;;;;;;22.51;49.26;101145.66;7395223;19;20074;-68
2023/07/10 02:07:47;;;;;;;10.57;9.48;;;;;;;22.45;49.31;101132.72;7395161;19;20024;-67
2023/07/10 02:10:15;;;;;;;10.10;9.10;;;;;;;22.42;49.31;101132.94;7395153;19;20070;-67
2023/07/10 02:12:43;;;;;;;10.50;8.88;;;;;;;22.37;49.89;101121.66;7394098;19;20074;-67
2023/07/10 02:15:12;;;;;;;9.57;8.68;;;;;;;22.34;49.63;101124.50;7394767;19;20025;-68
2023/07/10 02:17:41;;;;;;;11.45;9.20;;;;;;;22.29;50.07;101119.44;7392167;19;20344;-69
2023/07/10 02:20:10;;;;;;;10.13;8.02;;;;;;;22.28;49.92;101128.44;7392209;19;20007;-72
2023/07/10 02:22:38;;;;;;;9.75;8.73;;;;;;;22.25;50.02;101128.63;7391443;19;20554;-67
2023/07/10 02:25:10;;;;;;;11.02;8.30;;;;;;;22.23;50.15;101127.88;7393888;19;20085;-67
2023/07/10 02:27:39;;;;;;;11.50;8.48;;;;;;;22.21;50.14;101129.78;7394269;19;20015;-67
2023/07/10 02:30:09;;;;;;;10.60;8.32;;;;;;;22.19;50.28;101124.56;7394426;19;20019;-67
2023/07/10 02:32:37;;;;;;;10.18;8.95;;;;;;;22.16;50.08;101115.88;7391676;19;20019;-68
2023/07/10 02:35:06;;;;;;;10.60;9.30;;;;;;;22.11;50.10;101121.50;7393110;19;20397;-67
2023/07/10 02:37:35;;;;;;;9.98;8.98;;;;;;;22.07;50.19;101112.84;7395458;19;20022;-67
2023/07/10 02:40:03;;;;;;;10.18;9.18;;;;;;;22.01;50.09;101109.72;7398591;19;20086;-67
2023/07/10 02:42:34;;;;;;;9.73;8.63;;;;;;;21.97;50.55;101115.22;7401220;19;20025;-67
2023/07/10 02:45:03;;;;;;;10.95;8.95;;;;;;;21.94;50.66;101106.56;7400616;19;20022;-67
2023/07/10 02:47:31;;;;;;;9.57;8.52;;;;;;;21.92;50.37;101105.81;7400779;19;20535;-67
2023/07/10 02:50:07;;;;;;;10.80;9.20;;;;;;;21.91;50.81;101093.41;7400357;19;20082;-67
2023/07/10 02:52:36;;;;;;;10.73;9.25;;;;;;;21.89;50.45;101098.00;7400056;19;20342;-67
2023/07/10 02:55:04;;;;;;;10.00;8.98;;;;;;;21.86;50.48;101091.03;7400956;19;20018;-67
2023/07/10 02:57:35;;;;;;;9.32;8.40;;;;;;;21.85;50.44;101105.34;7400357;19;20082;-67
2023/07/10 03:00:05;;;;;;;10.63;9.50;;;;;;;21.85;50.35;101102.69;7398125;19;20503;-68
2023/07/10 03:02:33;;;;;;;10.13;8.35;;;;;;;21.83;50.03;101091.22;7400203;19;20082;-68
2023/07/10 03:05:02;;;;;;;10.25;9.25;;;;;;;21.82;50.37;101091.34;7399809;19;20011;-67
2023/07/10 03:07:30;;;;;;;11.13;9.95;;;;;;;21.82;50.15;101096.69;7400068;19;20024;-68
2023/07/10 03:09:59;;;;;;;10.07;9.00;;;;;;;21.80;50.48;101091.44;7400597;19;20022;-68
2023/07/10 03:12:28;;;;;;;10.85;9.70;;;;;;;21.80;49.98;101099.44;7399448;19;20021;-69
2023/07/10 03:14:59;;;;;;;11.43;9.30;;;;;;;21.79;50.05;101100.41;7397244;19;20090;-67
2023/07/10 03:17:31;;;;;;;9.88;8.88;;;;;;;21.79;50.05;101097.72;7398053;19;20074;-67
2023/07/10 03:19:59;;;;;;;27.40;21.95;;;;;;;21.80;50.02;101097.63;7398378;19;20027;-66
2023/07/10 03:22:28;;;;;;;20.48;15.75;;;;;;;21.79;50.42;101087.88;7399499;19;20031;-67
2023/07/10 03:24:57;;;;;;;18.30;15.20;;;;;;;21.79;50.67;101089.72;7397250;19;20022;-67
2023/07/10 03:27:27;;;;;;;16.33;12.50;;;;;;;21.79;50.70;101093.22;7398645;19;20019;-67
2023/07/10 03:29:58;;;;;;;15.60;13.88;;;;;;;21.78;50.67;101078.16;7399014;19;20014;-67
2023/07/10 03:32:27;;;;;;;15.00;12.00;;;;;;;21.80;50.41;101080.75;7399475;19;20019;-67
2023/07/10 03:34:57;;;;;;;12.93;10.32;;;;;;;21.79;50.03;101076.38;7396228;19;20015;-67
2023/07/10 03:37:25;;;;;;;12.73;11.38;;;;;;;21.79;50.14;101079.88;7396289;19;20025;-67
2023/07/10 03:39:54;;;;;;;13.65;11.25;;;;;;;21.80;50.30;101075.41;7397021;19;20027;-67
2023/07/10 03:42:22;;;;;;;10.43;9.43;;;;;;;21.81;49.97;101066.41;7397984;19;20481;-67
2023/07/10 03:44:51;;;;;;;12.25;10.95;;;;;;;21.80;49.50;101060.25;7396153;19;20066;-68
2023/07/10 03:47:22;;;;;;;10.85;9.40;;;;;;;21.83;49.54;101058.34;7398191;19;20010;-67
2023/07/10 03:49:50;;;;;;;12.30;10.38;;;;;;;21.83;49.23;101059.19;7397060;19;20090;-66
2023/07/10 03:52:19;;;;;;;10.27;9.18;;;;;;;21.85;49.66;101056.41;7398483;19;20014;-67
2023/07/10 03:54:47;;;;;;;11.77;10.20;;;;;;;21.86;49.32;101060.78;7396184;19;20078;-66
2023/07/10 03:57:16;;;;;;;11.40;10.02;;;;;;;21.86;48.99;101050.09;7399194;19;20018;-67
2023/07/10 03:59:44;;;;;;;13.02;9.43;;;;;;;21.87;49.32;101054.50;7397255;19;20014;-67
2023/07/10 04:02:13;;;;;;;10.48;9.48;;;;;;;21.86;49.29;101053.63;7395776;19;20055;-67
2023/07/10 04:04:44;;;;;;;11.38;8.93;;;;;;;21.86;49.19;101050.97;7395663;19;20034;-67
2023/07/10 04:07:13;;;;;;;10.40;9.40;;;;;;;21.86;49.01;101050.09;7400998;19;20079;-67
2023/07/10 04:09:41;;;;;;;12.30;10.27;;;;;;;21.86;48.95;101042.94;7398224;19;20485;-67
2023/07/10 04:12:11;;;;;;;10.90;9.43;;;;;;;21.88;49.37;101041.03;7396004;19;20018;-67
2023/07/10 04:14:40;;;;;;;10.57;8.88;;;;;;;21.91;49.00;101034.63;7396461;19;20043;-68
2023/07/10 04:17:09;;;;;;;11.45;9.40;;;;;;;21.94;49.02;101032.63;7396882;19;20478;-67
2023/07/10 04:19:37;;;;;;;11.02;9.98;;;;;;;21.95;48.91;101031.69;7395255;19;20015;-66
2023/07/10 04:22:08;;;;;;;12.25;9.45;;;;;;;21.99;48.84;101036.81;7395349;19;20019;-67
2023/07/10 04:24:38;;;;;;;11.15;9.65;;;;;;;22.03;48.88;101030.34;7396235;19;20074;-68
2023/07/10 04:27:08;;;;;;;10.48;9.57;;;;;;;22.06;49.37;101038.97;7395700;19;20018;-68
2023/07/10 04:29:37;;;;;;;10.82;9.73;;;;;;;22.10;50.17;101024.47;7397604;19;20020;-67
2023/07/10 04:32:06;;;;;;;12.00;10.70;;;;;;;22.14;50.84;101014.44;7397351;19;20078;-67
2023/07/10 04:34:34;;;;;;;12.63;9.50;;;;;;;22.16;51.15;101000.97;7395840;19;20019;-66
2023/07/10 04:37:02;;;;;;;11.38;9.32;;;;;;;22.19;51.76;101011.44;7397033;19;20086;-66
2023/07/10 04:39:34;;;;;;;12.68;9.25;;;;;;;22.22;51.36;101022.78;7395962;19;20023;-66
2023/07/10 04:42:02;;;;;;;12.18;9.85;;;;;;;22.23;51.19;101016.50;7396825;19;20039;-67
2023/07/10 04:44:31;;;;;;;11.25;10.15;;;;;;;22.25;51.48;101040.44;7394797;19;20098;-68
2023/07/10 04:46:59;;;;;;;13.07;11.77;;;;;;;22.25;51.71;101046.63;7396158;19;20074;-68
2023/07/10 04:49:27;;;;;;;14.98;12.13;;;;;;;22.24;51.27;101042.28;7394977;19;20099;-68
2023/07/10 04:51:56;;;;;;;13.77;12.38;;;;;;;22.20;51.41;101024.69;7396547;19;20022;-68
2023/07/10 04:54:24;;;;;;;15.32;12.55;;;;;;;22.18;52.07;101023.09;7394974;19;20035;-68
2023/07/10 04:56:56;;;;;;;14.05;12.65;;;;;;;22.17;52.45;101024.06;7396093;19;20039;-68
2023/07/10 04:59:24;;;;;;;15.15;13.60;;;;;;;22.13;52.37;101034.09;7396071;19;20081;-68
2023/07/10 05:01:53;;;;;;;15.18;13.65;;;;;;;22.10;52.57;101042.31;7394809;19;20046;-68
2023/07/10 05:04:21;;;;;;;19.73;15.30;;;;;;;22.03;52.26;101055.22;7394585;19;20022;-68
2023/07/10 05:06:51;;;;;;;18.27;14.90;;;;;;;21.94;52.78;101058.50;7393737;19;20039;-69
2023/07/10 05:09:20;;;;;;;16.63;14.27;;;;;;;21.83;53.16;101067.19;7395659;19;20010;-69
2023/07/10 05:11:48;;;;;;;14.57;13.10;;;;;;;21.71;53.72;101108.03;7395261;19;20019;-69
2023/07/10 05:14:19;;;;;;;15.07;12.43;;;;;;;21.57;54.42;101197.88;7393817;19;20038;-70
2023/07/10 05:16:48;;;;;;;13.40;12.10;;;;;;;21.36;55.57;101232.00;7394758;19;20027;-68
2023/07/10 05:19:16;;;;;;;12.68;9.38;;;;;;;21.07;54.76;101199.91;7395313;19;20027;-69
2023/07/10 05:21:45;;;;;;;11.05;9.73;;;;;;;21.01;53.60;101146.91;7395140;19;20022;-69
2023/07/10 05:24:14;;;;;;;10.23;9.32;;;;;;;21.03;53.43;101165.47;7392782;19;20019;-73
2023/07/10 05:26:42;;;;;;;11.05;9.90;;;;;;;20.99;53.85;101171.00;7395103;19;20529;-69
2023/07/10 05:29:11;;;;;;;10.35;9.30;;;;;;;20.86;54.30;101164.66;7394930;19;20077;-69
2023/07/10 05:31:42;;;;;;;11.23;10.13;;;;;;;20.71;55.06;101160.25;7395111;19;20010;-68
2023/07/10 05:34:10;;;;;;;11.20;10.10;;;;;;;20.61;56.44;101179.41;7393273;19;20372;-68
2023/07/10 05:36:39;;;;;;;11.95;10.23;;;;;;;20.60;56.54;101195.47;7394376;19;20025;-68
2023/07/10 05:39:07;;;;;;;13.48;10.68;;;;;;;20.58;56.85;101187.56;7392670;19;20082;-68
2023/07/10 05:41:36;;;;;;;13.45;10.73;;;;;;;20.59;56.95;101178.63;7394010;19;20027;-68
2023/07/10 05:44:06;;;;;;;12.98;10.52;;;;;;;20.60;56.98;101175.00;7393338;19;20082;-67
2023/07/10 05:46:34;;;;;;;10.60;9.52;;;;;;;20.66;57.50;101173.78;7394201;19;20021;-69
2023/07/10 05:49:06;;;;;;;14.77;11.30;;;;;;;20.73;57.75;101179.69;7394293;19;20426;-68
2023/07/10 05:51:35;;;;;;;11.98;10.75;;;;;;;20.78;58.52;101167.78;7394899;19;20019;-68
2023/07/10 05:54:04;;;;;;;12.30;10.80;;;;;;;20.85;58.50;101157.63;7393023;19;20415;-68
2023/07/10 05:56:33;;;;;;;14.07;11.32;;;;;;;20.91;58.33;101157.25;7392489;19;20485;-68
2023/07/10 05:59:03;;;;;;;18.50;11.85;;;;;;;20.96;58.41;101143.66;7392339;19;20034;-68
2023/07/10 06:01:31;;;;;;;11.88;10.40;;;;;;;21.05;58.34;101142.25;7391869;19;20031;-68
2023/07/10 06:04:00;;;;;;;11.38;10.23;;;;;;;21.10;58.01;101142.84;7392286;19;20541;-69
2023/07/10 06:06:31;;;;;;;11.82;10.40;;;;;;;21.15;57.60;101143.41;7394062;19;20082;-69
2023/07/10 06:09:00;;;;;;;13.55;11.25;;;;;;;21.21;57.85;101142.22;7391865;19;20485;-68
2023/07/10 06:11:28;;;;;;;13.85;11.18;;;;;;;21.28;57.33;101143.53;7394821;19;20026;-68
2023/07/10 06:13:57;;;;;;;13.02;11.18;;;;;;;21.34;57.47;101136.97;7396945;19;20090;-69
2023/07/10 06:16:25;;;;;;;12.30;10.50;;;;;;;21.39;56.96;101127.72;7400491;19;20082;-69
2023/07/10 06:18:53;;;;;;;11.65;10.35;;;;;;;21.46;56.91;101122.88;7398216;19;20030;-69
2023/07/10 06:21:22;;;;;;;12.85;11.65;;;;;;;21.53;56.86;101110.84;7399873;19;20022;-68
2023/07/10 06:23:53;;;;;;;11.82;10.63;;;;;;;21.59;56.22;101109.66;7399422;19;20042;-69
2023/07/10 06:26:21;;;;;;;12.60;11.15;;;;;;;21.61;56.18;101092.59;7401396;19;20018;-67
2023/07/10 06:28:50;;;;;;;15.70;11.82;;;;;;;21.63;56.16;101077.34;7400685;19;20074;-69
2023/07/10 06:31:18;;;;;;;21.85;12.02;;;;;;;21.66;56.16;101064.72;7398291;19;20082;-68
2023/07/10 06:33:47;;;;;;;14.55;10.73;;;;;;;21.69;56.37;101061.88;7399514;19;20086;-70
2023/07/10 06:36:15;;;;;;;11.82;10.70;;;;;;;21.74;56.17;101054.44;7400105;19;20060;-69
2023/07/10 06:38:44;;;;;;;17.50;11.50;;;;;;;21.77;55.94;101051.56;7400064;19;20022;-69
2023/07/10 06:41:15;;;;;;;11.77;10.63;;;;;;;21.80;56.07;101038.03;7398507;19;20075;-70
2023/07/10 06:43:44;;;;;;;15.27;12.25;;;;;;;21.86;55.98;101031.41;7396536;19;20010;-69
2023/07/10 06:46:12;;;;;;;14.57;12.38;;;;;;;21.92;55.78;101021.19;7395755;19;20340;-70
2023/07/10 06:48:42;;;;;;;13.80;12.50;;;;;;;22.00;56.02;101027.84;7396464;19;20427;-69
2023/07/10 06:51:11;;;;;;;14.27;11.95;;;;;;;22.08;56.14;101020.19;7400693;19;20042;-68
2023/07/10 06:53:40;;;;;;;13.68;12.38;;;;;;;22.16;56.08;101028.53;7398375;19;20134;-68
2023/07/10 06:56:09;;;;;;;13.82;12.52;;;;;;;22.25;55.65;101035.09;7400730;19;20031;-69
2023/07/10 06:58:40;;;;;;;14.30;11.90;;;;;;;22.33;55.86;101034.59;7399375;19;20018;-68
2023/07/10 07:01:08;;;;;;;13.82;12.20;;;;;;;22.39;55.46;101040.44;7396510;19;20007;-68
2023/07/10 07:03:40;;;;;;;13.25;11.77;;;;;;;22.44;55.31;101040.09;7397951;19;20018;-68
2023/07/10 07:06:10;;;;;;;12.90;11.70;;;;;;;22.48;54.96;101038.91;7396614;19;20006;-69
2023/07/10 07:08:38;;;;;;;14.85;12.25;;;;;;;22.50;55.07;101036.16;7397861;19;20481;-71
2023/07/10 07:11:07;;;;;;;13.40;12.13;;;;;;;22.52;54.94;101028.88;7398598;19;20021;-69
2023/07/10 07:13:36;;;;;;;12.85;11.13;;;;;;;22.53;55.08;101019.91;7396040;19;20367;-68
2023/07/10 07:16:14;;;;;;;12.98;11.63;;;;;;;22.56;55.08;101022.38;7398626;19;20158;-68
2023/07/10 07:18:42;;;;;;;11.13;10.13;;;;;;;22.59;54.90;101023.00;7396609;19;20082;-68
2023/07/10 07:21:13;;;;;;;11.57;10.38;;;;;;;22.63;54.70;101030.84;7398966;19;20082;-68
2023/07/10 07:23:42;;;;;;;11.93;10.73;;;;;;;22.67;54.12;101024.31;7398143;19;20078;-68
2023/07/10 07:26:10;;;;;;;14.25;11.15;;;;;;;22.71;54.14;101015.09;7398766;19;20024;-67
2023/07/10 07:28:39;;;;;;;11.88;9.80;;;;;;;22.76;53.92;101016.53;7396429;19;20031;-67
2023/07/10 07:31:10;;;;;;;11.40;10.30;;;;;;;22.84;54.14;101012.47;7398235;19;20021;-68
2023/07/10 07:33:38;;;;;;;12.18;9.95;;;;;;;22.91;54.01;101027.97;7397277;19;20088;-65
2023/07/10 07:36:13;;;;;;;10.75;9.73;;;;;;;22.99;53.85;101029.25;7396590;19;20031;-68
2023/07/10 07:38:42;;;;;;;11.88;9.98;;;;;;;23.07;53.83;101032.25;7398393;19;20435;-67
2023/07/10 07:41:10;;;;;;;12.13;9.95;;;;;;;23.15;54.03;101037.06;7396346;19;20024;-68
2023/07/10 07:43:39;;;;;;;11.55;10.35;;;;;;;23.23;54.03;101029.41;7395968;19;20428;-68
2023/07/10 07:46:10;;;;;;;10.55;9.40;;;;;;;23.32;53.86;101039.44;7398566;19;20086;-67
2023/07/10 07:48:38;;;;;;;12.00;10.80;;;;;;;23.42;53.50;101040.50;7398569;19;20094;-68
2023/07/10 07:51:08;;;;;;;11.18;9.25;;;;;;;23.53;53.38;101038.88;7398146;19;20035;-68
2023/07/10 07:53:42;;;;;;;10.77;9.75;;;;;;;23.65;52.97;101029.94;7396547;19;20506;-67
2023/07/10 07:56:10;;;;;;;;;;;;;;;23.78;52.27;101035.25;7399281;19;20022;-68
2023/07/10 07:58:39;;;;;;;11.07;9.50;;;;;;;23.91;52.02;101035.28;7397373;19;19998;-67
2023/07/10 08:01:10;;;;;;;10.88;9.63;;;;;;;24.03;51.94;101033.50;7396818;19;20071;-66
2023/07/10 08:03:39;;;;;;;9.50;8.52;;;;;;;24.17;51.64;101051.22;7396449;19;20015;-66
2023/07/10 08:06:09;;;;;;;13.27;9.48;;;;;;;24.31;51.29;101039.47;7395067;19;20015;-67
2023/07/10 08:08:37;;;;;;;11.05;9.43;;;;;;;24.46;50.93;101034.78;7394598;19;20011;-66
2023/07/10 08:11:08;;;;;;;13.95;9.20;;;;;;;24.60;50.03;101042.63;7394678;19;20078;-67
2023/07/10 08:13:37;;;;;;;12.55;10.82;;;;;;;24.75;49.40;101040.63;7394450;19;20182;-66
2023/07/10 08:16:06;;;;;;;10.68;9.68;;;;;;;24.89;49.22;101037.69;7396770;19;20023;-65
2023/07/10 08:18:38;;;;;;;10.75;9.40;;;;;;;25.03;48.62;101035.78;7395301;19;20468;-66
2023/07/10 08:21:09;;;;;;;10.43;9.37;;;;;;;25.22;48.30;101045.91;7395925;19;20130;-66
2023/07/10 08:23:38;;;;;;;11.07;8.32;;;;;;;25.38;48.11;101048.28;7393576;19;20412;-66
2023/07/10 08:26:08;;;;;;;11.27;10.27;;;;;;;25.53;47.92;101044.34;7396358;19;20018;-66
2023/07/10 08:28:37;;;;;;;10.77;9.77;;;;;;;25.68;47.42;101038.75;7396424;19;20023;-66
2023/07/10 08:31:06;;;;;;;10.80;9.73;;;;;;;25.80;47.11;101037.72;7396107;19;20183;-66
2023/07/10 08:33:37;;;;;;;10.00;9.00;;;;;;;25.91;46.81;101038.66;7396012;19;20025;-65
2023/07/10 08:36:07;;;;;;;9.77;8.85;;;;;;;26.01;46.57;101036.94;7394939;19;20014;-66
2023/07/10 08:38:37;;;;;;;11.18;9.63;;;;;;;26.15;46.57;101047.44;7395763;19;20081;-66
2023/07/10 08:41:19;;;;;;;10.77;9.55;;;;;;;26.28;47.53;101047.25;7395636;19;20421;-66
2023/07/10 08:43:49;;;;;;;11.07;9.32;;;;;;;26.39;47.47;101048.19;7395905;19;20018;-66
2023/07/10 08:46:20;;;;;;;10.95;9.52;;;;;;;26.46;48.02;101050.25;7394317;19;20019;-67
2023/07/10 08:48:57;;;;;;;10.85;9.82;;;;;;;26.52;47.58;101039.94;7395798;19;20038;-69
2023/07/10 08:51:36;;;;;;;11.38;10.15;;;;;;;26.58;47.43;101037.56;7394065;19;20013;-67
2023/07/10 08:54:08;;;;;;;10.63;9.63;;;;;;;26.64;47.55;101031.69;7394985;19;20042;-67
2023/07/10 08:56:43;;;;;;;10.75;9.68;;;;;;;26.73;47.22;101030.06;7396874;19;20074;-67
2023/07/10 08:59:39;;;;;;;12.18;10.52;;;;;;;26.84;47.18;101031.81;7396525;19;20085;-67
2023/07/10 09:02:31;;;;;;;11.90;10.70;;;;;;;26.95;47.02;101037.13;7394307;19;20545;-68
2023/07/10 09:05:05;;;;;;;12.55;10.32;;;;;;;27.06;47.88;101041.59;7394056;19;20035;-67
2023/07/10 09:07:42;;;;;;;12.70;10.55;;;;;;;27.17;48.34;101039.78;7396442;19;20090;-69
2023/07/10 09:10:17;;;;;;;10.98;9.95;;;;;;;27.25;47.94;101037.28;7396114;19;20054;-68
2023/07/10 09:12:50;;;;;;;10.13;9.23;;;;;;;27.30;47.65;101035.88;7393203;19;20018;-66
2023/07/10 09:15:25;;;;;;;17.73;15.48;;;;;;;27.38;46.88;101034.34;7393595;19;20082;-67
2023/07/10 09:18:06;;;;;;;13.20;11.88;;;;;;;27.44;46.61;101037.38;7393272;19;20549;-68
2023/07/10 09:20:39;;;;;;;11.65;10.23;;;;;;;27.52;46.24;101034.00;7395668;19;20090;-68
2023/07/10 09:23:27;;;;;;;12.15;10.88;;;;;;;27.59;46.09;101037.00;7394700;19;20027;-69
2023/07/10 09:25:58;;;;;;;12.40;9.55;;;;;;;27.66;46.05;101032.75;7395751;19;20102;-68
2023/07/10 09:28:27;;;;;;;13.75;10.80;;;;;;;27.74;46.11;101030.25;7395602;19;20086;-68
2023/07/10 09:31:01;;;;;;;12.10;10.10;;;;;;;27.80;45.92;101020.72;7394931;19;20019;-69
2023/07/10 09:33:40;;;;;;;10.98;9.43;;;;;;;27.86;45.55;101017.47;7395669;19;20026;-69
2023/07/10 09:36:18;;;;;;;11.73;10.15;;;;;;;27.92;44.41;101025.00;7395211;19;20031;-68
2023/07/10 09:38:48;;;;;;;10.77;9.80;;;;;;;27.94;44.30;101024.84;7394322;19;20086;-68
2023/07/10 09:41:22;;;;;;;10.38;9.30;;;;;;;27.99;43.96;101014.50;7392821;19;20038;-68
2023/07/10 09:43:55;;;;;;;10.68;9.10;;;;;;;28.07;43.68;101028.19;7393828;19;20082;-67
2023/07/10 09:46:25;;;;;;;12.25;10.98;;;;;;;28.19;43.39;101028.88;7395581;19;20082;-69
2023/07/10 09:48:56;;;;;;;11.02;10.00;;;;;;;28.31;43.27;101020.66;7398691;19;20140;-70
2023/07/10 09:51:28;;;;;;;11.68;9.25;;;;;;;28.42;42.80;101018.66;7402965;19;20078;-67
2023/07/10 09:54:06;;;;;;;11.63;10.23;;;;;;;28.51;42.48;101016.94;7399840;19;20100;-67
2023/07/10 09:56:38;;;;;;;10.57;9.10;;;;;;;28.58;41.99;101025.31;7398560;19;20022;-68
2023/07/10 09:59:21;;;;;;;10.38;9.32;;;;;;;28.66;42.07;101020.03;7402053;19;20094;-67
2023/07/10 10:01:50;;;;;;;10.05;9.15;;;;;;;28.74;41.87;101022.06;7399001;19;20026;-68
2023/07/10 10:04:23;;;;;;;10.68;9.68;;;;;;;28.80;41.50;101016.03;7399223;19;20081;-68
2023/07/10 10:07:03;;;;;;;10.70;9.65;;;;;;;28.82;40.71;101011.38;7398519;19;20019;-68
2023/07/10 10:09:33;;;;;;;10.35;8.70;;;;;;;28.83;41.11;101012.22;7398412;19;20023;-69
2023/07/10 10:12:06;;;;;;;10.02;8.52;;;;;;;28.85;40.89;101010.22;7397702;19;20027;-68
2023/07/10 10:14:40;;;;;;;;;;;;;;;28.89;40.63;101006.22;7398590;19;20497;-71
2023/07/10 10:17:14;;;;;;;9.57;8.63;;;;;;;28.95;41.05;101013.72;7397398;19;19981;-68
2023/07/10 10:19:47;;;;;;;9.93;8.93;;;;;;;29.05;40.88;101002.91;7400949;19;20021;-67
2023/07/10 10:22:18;;;;;;;11.90;9.05;;;;;;;29.16;40.37;101001.88;7398267;19;20015;-67
2023/07/10 10:24:47;;;;;;;9.65;8.73;;;;;;;29.24;40.39;101008.25;7397277;19;20508;-68
2023/07/10 10:27:28;;;;;;;10.30;8.40;;;;;;;29.31;40.18;101004.97;7397527;19;20545;-68
2023/07/10 10:30:15;;;;;;;9.27;7.80;;;;;;;29.33;39.62;101000.25;7397939;19;20087;-68
2023/07/10 10:32:53;;;;;;;8.90;8.10;;;;;;;29.42;39.83;101015.56;7397988;19;20078;-68
2023/07/10 10:35:29;;;;;;;8.98;8.07;;;;;;;29.48;38.83;101004.13;7400163;19;20018;-68
2023/07/10 10:38:14;;;;;;;7.45;6.70;;;;;;;29.56;38.94;101009.66;7401192;19;20014;-70
2023/07/10 10:40:50;;;;;;;8.35;7.40;;;;;;;29.68;38.73;101010.28;7400706;19;20026;-70
2023/07/10 10:43:42;;;;;;;8.73;7.82;;;;;;;29.74;37.64;101001.56;7399324;19;20022;-70
2023/07/10 10:46:24;;;;;;;9.68;7.13;;;;;;;29.69;37.84;101011.16;7400857;19;20510;-69
2023/07/10 10:49:02;;;;;;;10.50;8.43;;;;;;;29.53;37.50;101014.50;7399715;19;20427;-71
2023/07/10 10:51:37;;;;;;;10.38;7.55;;;;;;;29.31;38.52;101005.81;7400430;19;20182;-69
2023/07/10 10:54:22;;;;;;;8.70;7.72;;;;;;;29.23;38.67;101000.25;7398463;19;20081;-69
2023/07/10 10:56:58;;;;;;;8.73;7.90;;;;;;;29.19;38.75;101002.44;7397254;19;20522;-69
2023/07/10 10:59:38;;;;;;;9.63;8.13;;;;;;;29.19;39.03;101001.56;7395932;19;20066;-69
2023/07/10 11:02:28;;;;;;;10.23;8.32;;;;;;;29.21;39.47;100996.88;7398801;19;20160;-69
2023/07/10 11:05:04;;;;;;;9.43;8.50;;;;;;;29.23;39.51;100995.72;7397000;19;20041;-70
2023/07/10 11:07:34;;;;;;;10.40;8.00;;;;;;;29.23;39.44;101000.25;7396818;19;20032;-72
2023/07/10 11:10:13;;;;;;;11.18;9.05;;;;;;;29.26;39.33;101008.09;7398930;19;20082;-70
2023/07/10 11:12:42;;;;;;;8.77;7.97;;;;;;;29.34;39.12;101002.78;7398601;19;20392;-70
2023/07/10 11:15:18;;;;;;;9.43;8.27;;;;;;;29.43;39.63;101003.75;7398865;19;20090;-71
2023/07/10 11:17:51;;;;;;;9.80;8.70;;;;;;;29.54;39.27;101008.09;7396344;19;20007;-72
2023/07/10 11:20:21;;;;;;;10.93;8.85;;;;;;;29.53;39.35;101009.94;7395769;19;20042;-70
2023/07/10 11:22:53;;;;;;;9.73;8.70;;;;;;;29.40;39.75;101006.75;7395871;19;20078;-71
2023/07/10 11:25:37;;;;;;;9.20;8.30;;;;;;;29.40;39.72;101007.59;7400088;19;20011;-70
2023/07/10 11:28:20;;;;;;;11.10;8.27;;;;;;;29.48;39.72;101014.13;7398767;19;20070;-72
2023/07/10 11:31:19;;;;;;;8.70;7.78;;;;;;;29.54;39.42;101017.06;7398795;19;20025;-68
2023/07/10 11:33:52;;;;;;;8.98;7.65;;;;;;;29.55;39.98;101004.41;7396830;19;20074;-69
2023/07/10 11:36:37;;;;;;;;;;;;;;;29.53;40.88;101004.53;7396928;19;20015;-69